Time;durP1;ratioP1;P1;durP2;ratioP2;P2;SDS_P1;SDS_P2;PMS_P1;PMS_P2;Temp;Humidity;BMP_temperature;BMP_pressure;BME280_temperature;BME280_humidity;BME280_pressure;Samples;Min_cycle;Max_cycle;Signal;HPM_P1;HPM_P2
2023/12/07 00:01:28;;;;;;;;;;;13.10;76.30;;;;;;4958390;28;19906;-79
2023/12/07 00:03:53;;;;;;;;;;;13.10;76.30;;;;;;4958380;28;19910;-79
2023/12/07 00:06:19;;;;;;;;;;;13.10;76.30;;;;;;4958147;28;19906;-78
2023/12/07 00:08:44;;;;;;;;;;;13.10;76.30;;;;;;4958039;28;19910;-79
2023/12/07 00:11:10;;;;;;;;;;;13.10;76.40;;;;;;4958419;28;19913;-80
2023/12/07 00:13:35;;;;;;;;;;;13.10;76.40;;;;;;4975949;28;19976;-79
2023/12/07 00:16:00;;;;;;;;;;;13.10;76.40;;;;;;4958300;28;19914;-80
2023/12/07 00:18:26;;;;;;;;;;;13.10;76.30;;;;;;4958372;28;19910;-79
2023/12/07 00:20:51;;;;;;;;;;;13.10;76.30;;;;;;4975515;28;19953;-80
2023/12/07 00:23:17;;;;;;;;;;;13.10;76.30;;;;;;4958010;28;19953;-80
2023/12/07 00:25:42;;;;;;;;;;;13.10;76.40;;;;;;4957400;28;20446;-80
2023/12/07 00:28:08;;;;;;;;;;;13.10;76.40;;;;;;4958190;28;19916;-80
2023/12/07 00:30:33;;;;;;;;;;;13.10;76.30;;;;;;4958020;28;19972;-80
2023/12/07 00:32:59;;;;;;;;;;;13.10;76.30;;;;;;4958351;28;19922;-79
2023/12/07 00:35:24;;;;;;;;;;;13.10;76.90;;;;;;4958252;28;20367;-80
2023/12/07 00:37:50;;;;;;;;;;;13.10;76.30;;;;;;4958094;28;19917;-79
2023/12/07 00:40:15;;;;;;;;;;;13.10;76.30;;;;;;4957538;28;19914;-80
2023/12/07 00:42:41;;;;;;;;;;;13.00;76.30;;;;;;4958108;28;19909;-81
2023/12/07 00:45:06;;;;;;;;;;;13.10;76.30;;;;;;4957772;28;19969;-79
2023/12/07 00:47:32;;;;;;;;;;;13.10;76.30;;;;;;4974923;28;19970;-80
2023/12/07 00:49:57;;;;;;;;;;;13.10;76.30;;;;;;4957522;28;19968;-79
2023/12/07 00:52:22;;;;;;;;;;;13.10;76.40;;;;;;4957730;28;19949;-79
2023/12/07 00:54:48;;;;;;;;;;;13.10;76.40;;;;;;4957374;28;19961;-80
2023/12/07 00:57:13;;;;;;;;;;;13.10;76.30;;;;;;4957593;28;19917;-79
2023/12/07 00:59:39;;;;;;;;;;;13.10;76.30;;;;;;4957590;28;19916;-79
2023/12/07 01:02:05;;;;;;;;;;;13.10;76.30;;;;;;4957453;28;19910;-78
2023/12/07 01:04:31;;;;;;;;;;;13.10;76.30;;;;;;4975105;28;19906;-78
2023/12/07 01:06:56;;;;;;;;;;;13.10;76.40;;;;;;4957082;28;20057;-80
2023/12/07 01:09:22;;;;;;;;;;;13.10;76.30;;;;;;4957490;28;19920;-80
2023/12/07 01:11:48;;;;;;;;;;;13.10;76.30;;;;;;4974648;28;20001;-78
2023/12/07 01:14:14;;;;;;;;;;;13.10;76.40;;;;;;4957470;28;20010;-80
2023/12/07 01:16:39;;;;;;;;;;;13.10;76.30;;;;;;4957218;28;19916;-78
2023/12/07 01:19:05;;;;;;;;;;;13.10;76.30;;;;;;4956821;28;19910;-79
2023/12/07 01:21:30;;;;;;;;;;;13.10;76.40;;;;;;4957206;28;20371;-78
2023/12/07 01:23:56;;;;;;;;;;;13.10;76.40;;;;;;4957055;28;19937;-79
2023/12/07 01:26:21;;;;;;;;;;;13.10;76.40;;;;;;4956979;28;19964;-79
2023/12/07 01:28:47;;;;;;;;;;;13.10;76.40;;;;;;4956724;28;19914;-79
2023/12/07 01:31:12;;;;;;;;;;;13.10;76.40;;;;;;4974529;28;19906;-81
2023/12/07 01:33:38;;;;;;;;;;;13.10;76.40;;;;;;4973882;28;19906;-80
2023/12/07 01:36:03;;;;;;;;;;;13.10;76.40;;;;;;4974018;28;19914;-80
2023/12/07 01:38:29;;;;;;;;;;;13.10;76.40;;;;;;4956454;28;19910;-81
2023/12/07 01:40:54;;;;;;;;;;;13.10;76.40;;;;;;4974117;28;19906;-80
2023/12/07 01:43:21;;;;;;;;;;;13.10;76.40;;;;;;4956681;28;19953;-80
2023/12/07 01:45:47;;;;;;;;;;;13.10;76.40;;;;;;4956443;28;20362;-79
2023/12/07 01:48:13;;;;;;;;;;;13.10;76.40;;;;;;4956576;28;20017;-80
2023/12/07 01:50:38;;;;;;;;;;;13.10;76.40;;;;;;4956348;28;20008;-80
2023/12/07 01:53:04;;;;;;;;;;;13.10;76.40;;;;;;4956457;28;19914;-80
2023/12/07 01:55:31;;;;;;;;;;;13.10;76.50;;;;;;4956517;28;19914;-80
2023/12/07 01:57:57;;;;;;;;;;;13.10;76.50;;;;;;4956319;28;19950;-80
2023/12/07 02:00:22;;;;;;;;;;;13.10;76.40;;;;;;4956266;28;19961;-79
2023/12/07 02:02:48;;;;;;;;;;;13.10;76.40;;;;;;4956327;28;19906;-81
2023/12/07 02:05:14;;;;;;;;;;;13.10;76.40;;;;;;4956281;28;19910;-80
2023/12/07 02:07:42;;;;;;;;;;;13.10;76.50;;;;;;4973774;28;19957;-80
2023/12/07 02:10:08;;;;;;;;;;;13.10;76.50;;;;;;4955732;28;20359;-81
2023/12/07 02:12:34;;;;;;;;;;;13.10;76.50;;;;;;4956460;28;20205;-79
2023/12/07 02:15:00;;;;;;;;;;;13.10;76.50;;;;;;4955695;28;19977;-80
2023/12/07 02:17:28;;;;;;;;;;;13.10;76.50;;;;;;4956093;28;20356;-80
2023/12/07 02:19:59;;;;;;;;;;;13.10;76.50;;;;;;4973177;28;19917;-81
2023/12/07 02:22:27;;;;;;;;;;;13.10;76.50;;;;;;4956036;28;19917;-80
2023/12/07 02:25:04;;;;;;;;;;;13.10;76.50;;;;;;4955919;28;19952;-81
2023/12/07 02:27:37;;;;;;;;;;;13.10;76.50;;;;;;4956101;28;19982;-80
2023/12/07 02:30:02;;;;;;;;;;;13.10;76.50;;;;;;4955842;28;20394;-80
2023/12/07 02:32:28;;;;;;;;;;;13.10;76.50;;;;;;4955953;28;19906;-79
2023/12/07 02:34:54;;;;;;;;;;;13.10;76.50;;;;;;4955911;28;19921;-79
2023/12/07 02:37:21;;;;;;;;;;;13.10;76.50;;;;;;4955826;28;19914;-81
2023/12/07 02:39:47;;;;;;;;;;;13.10;76.50;;;;;;4955301;28;19972;-79
2023/12/07 02:42:13;;;;;;;;;;;13.10;77.10;;;;;;4955662;28;19910;-80
2023/12/07 02:44:39;;;;;;;;;;;13.10;76.50;;;;;;4955640;28;19925;-80
2023/12/07 02:47:05;;;;;;;;;;;13.10;76.50;;;;;;4955129;28;19914;-80
2023/12/07 02:49:30;;;;;;;;;;;13.20;76.60;;;;;;4955403;28;19910;-80
2023/12/07 02:51:56;;;;;;;;;;;13.10;76.50;;;;;;4955390;28;19910;-80
2023/12/07 02:54:21;;;;;;;;;;;13.10;76.60;;;;;;4955602;28;19921;-79
2023/12/07 02:56:48;;;;;;;;;;;13.10;76.50;;;;;;4972873;28;19993;-81
2023/12/07 02:59:13;;;;;;;;;;;13.10;76.50;;;;;;4955352;28;19960;-79
2023/12/07 03:01:38;;;;;;;;;;;13.10;76.60;;;;;;4955367;28;20325;-79
2023/12/07 03:04:04;;;;;;;;;;;13.10;76.60;;;;;;4955522;28;19910;-79
2023/12/07 03:06:29;;;;;;;;;;;13.10;76.60;;;;;;4955593;28;20354;-80
2023/12/07 03:08:55;;;;;;;;;;;13.10;76.50;;;;;;4955212;28;20385;-80
2023/12/07 03:11:21;;;;;;;;;;;13.10;76.50;;;;;;4955446;28;19917;-80
2023/12/07 03:13:46;;;;;;;;;;;13.10;76.60;;;;;;4955426;28;19917;-80
2023/12/07 03:16:12;;;;;;;;;;;13.10;76.60;;;;;;4955088;28;19910;-81
2023/12/07 03:18:37;;;;;;;;;;;13.10;76.60;;;;;;4955191;28;19913;-79
2023/12/07 03:21:03;;;;;;;;;;;13.10;76.60;;;;;;4955280;28;20352;-80
2023/12/07 03:23:28;;;;;;;;;;;13.10;76.60;;;;;;4955115;28;20367;-82
2023/12/07 03:25:54;;;;;;;;;;;13.10;76.60;;;;;;4955086;28;19906;-80
2023/12/07 03:28:19;;;;;;;;;;;13.10;76.60;;;;;;4972049;28;19907;-80
2023/12/07 03:30:44;;;;;;;;;;;13.10;76.60;;;;;;4955241;28;19906;-80
2023/12/07 03:33:10;;;;;;;;;;;13.10;76.60;;;;;;4955470;28;20013;-79
2023/12/07 03:35:35;;;;;;;;;;;13.10;76.60;;;;;;4954874;28;19924;-80
2023/12/07 03:38:02;;;;;;;;;;;13.00;76.60;;;;;;4972425;28;19925;-80
2023/12/07 03:40:27;;;;;;;;;;;13.00;76.60;;;;;;4954909;28;19921;-81
2023/12/07 03:42:53;;;;;;;;;;;13.00;77.10;;;;;;4954978;28;19907;-80
2023/12/07 03:45:18;;;;;;;;;;;13.00;76.60;;;;;;4955020;28;19914;-80
2023/12/07 03:47:44;;;;;;;;;;;13.10;76.70;;;;;;4954737;28;20275;-80
2023/12/07 03:50:09;;;;;;;;;;;13.00;76.60;;;;;;4954606;28;19910;-81
2023/12/07 03:52:34;;;;;;;;;;;13.00;76.50;;;;;;4955115;28;19916;-80
2023/12/07 03:55:00;;;;;;;;;;;13.00;76.60;;;;;;4951561;28;19921;-80
2023/12/07 03:57:25;;;;;;;;;;;13.10;76.60;;;;;;4969510;28;19917;-80
2023/12/07 03:59:52;;;;;;;;;;;13.00;76.60;;;;;;4955796;28;19910;-79
2023/12/07 04:02:17;;;;;;;;;;;13.00;76.60;;;;;;4958564;28;19910;-80
2023/12/07 04:04:43;;;;;;;;;;;13.00;76.60;;;;;;4958661;28;19909;-81
2023/12/07 04:07:08;;;;;;;;;;;13.00;76.60;;;;;;4975866;28;19910;-80
2023/12/07 04:09:33;;;;;;;;;;;13.00;76.60;;;;;;4957839;28;19906;-79
2023/12/07 04:11:59;;;;;;;;;;;13.00;76.60;;;;;;4958347;28;19912;-79
2023/12/07 04:14:24;;;;;;;;;;;13.00;76.60;;;;;;4958418;28;19920;-78
2023/12/07 04:16:50;;;;;;;;;;;13.00;76.60;;;;;;4957838;28;19910;-78
2023/12/07 04:19:15;;;;;;;;;;;13.00;76.60;;;;;;4957748;28;19914;-80
2023/12/07 04:21:41;;;;;;;;;;;13.00;76.60;;;;;;4958043;28;19917;-80
2023/12/07 04:24:06;;;;;;;;;;;13.00;76.60;;;;;;4958119;28;19913;-81
2023/12/07 04:26:31;;;;;;;;;;;13.00;76.60;;;;;;4958297;28;19917;-80
2023/12/07 04:28:57;;;;;;;;;;;13.00;76.60;;;;;;4958095;28;19968;-80
2023/12/07 04:31:22;;;;;;;;;;;12.90;76.50;;;;;;4958025;28;19910;-80
2023/12/07 04:33:48;;;;;;;;;;;13.00;76.50;;;;;;4975406;28;19910;-80
2023/12/07 04:36:13;;;;;;;;;;;13.10;76.60;;;;;;4957856;28;19913;-79
2023/12/07 04:38:40;;;;;;;;;;;13.00;76.60;;;;;;4975065;28;19953;-80
2023/12/07 04:41:05;;;;;;;;;;;13.00;76.60;;;;;;4957968;28;19969;-81
2023/12/07 04:43:30;;;;;;;;;;;13.00;76.60;;;;;;4957661;28;20379;-78
2023/12/07 04:45:56;;;;;;;;;;;13.00;76.60;;;;;;4957760;28;19914;-80
2023/12/07 04:48:21;;;;;;;;;;;13.00;76.60;;;;;;4957419;28;20282;-81
2023/12/07 04:50:47;;;;;;;;;;;13.00;76.60;;;;;;4974983;28;20266;-78
2023/12/07 04:53:12;;;;;;;;;;;13.00;76.60;;;;;;4957847;28;19917;-80
2023/12/07 04:55:37;;;;;;;;;;;13.00;76.60;;;;;;4957263;28;19920;-79
2023/12/07 04:58:03;;;;;;;;;;;13.00;76.60;;;;;;4957536;28;19917;-81
2023/12/07 05:00:28;;;;;;;;;;;13.00;76.60;;;;;;4957134;28;20005;-81
2023/12/07 05:02:54;;;;;;;;;;;13.00;76.60;;;;;;4957348;28;19917;-81
2023/12/07 05:05:19;;;;;;;;;;;13.00;76.60;;;;;;4957346;28;19952;-81
2023/12/07 05:07:44;;;;;;;;;;;13.00;76.60;;;;;;4957217;28;19996;-80
2023/12/07 05:10:10;;;;;;;;;;;13.00;76.60;;;;;;4956597;28;19906;-79
2023/12/07 05:12:35;;;;;;;;;;;13.00;76.60;;;;;;4974449;28;19909;-78
2023/12/07 05:15:02;;;;;;;;;;;13.00;76.60;;;;;;4956826;28;19910;-78
2023/12/07 05:17:28;;;;;;;;;;;13.00;76.60;;;;;;4957082;28;19913;-80
2023/12/07 05:19:53;;;;;;;;;;;13.00;76.60;;;;;;4974630;28;19910;-80
2023/12/07 05:22:19;;;;;;;;;;;13.00;76.60;;;;;;4956771;28;19917;-80
2023/12/07 05:24:44;;;;;;;;;;;13.00;76.60;;;;;;4956778;28;19910;-81
2023/12/07 05:27:09;;;;;;;;;;;13.00;76.70;;;;;;4956918;28;19914;-81
2023/12/07 05:29:35;;;;;;;;;;;13.00;76.60;;;;;;4973979;28;19910;-79
2023/12/07 05:32:00;;;;;;;;;;;13.00;76.60;;;;;;4956717;28;19913;-79
2023/12/07 05:34:26;;;;;;;;;;;13.00;76.60;;;;;;4956439;28;20001;-79
2023/12/07 05:36:51;;;;;;;;;;;13.00;76.60;;;;;;4974199;28;20374;-79
2023/12/07 05:39:17;;;;;;;;;;;13.00;76.60;;;;;;4956468;28;19906;-80
2023/12/07 05:41:43;;;;;;;;;;;13.00;76.60;;;;;;4956660;28;19942;-79
2023/12/07 05:44:08;;;;;;;;;;;13.00;76.70;;;;;;4956469;28;19918;-80
2023/12/07 05:46:35;;;;;;;;;;;13.00;76.70;;;;;;4956265;28;19910;-79
2023/12/07 05:49:00;;;;;;;;;;;13.00;76.70;;;;;;4955038;28;20014;-80
2023/12/07 05:51:26;;;;;;;;;;;13.00;76.70;;;;;;4951791;28;20730;-82
2023/12/07 05:53:52;;;;;;;;;;;13.00;76.70;;;;;;4948946;28;20359;-81
2023/12/07 05:56:19;;;;;;;;;;;13.00;76.70;;;;;;4949722;28;19917;-80
2023/12/07 05:58:44;;;;;;;;;;;12.90;76.70;;;;;;4950751;28;19910;-81
2023/12/07 06:15:17;;;;;;;;;;;12.90;76.70;;;;;;4969784;28;20013;-81
2023/12/07 06:45:20;;;;;;;;;;;;;;;;;;;;;
2023/12/07 07:54:36;;;;;;;;;;;12.90;76.80;;;;;;4972950;28;20382;-79
2023/12/07 08:16:11;;;;;;;;;;;12.80;76.70;;;;;;963869;22;21627;31
2023/12/07 08:25:09;;;;;;;;;;;12.80;77.20;;;;;;4945997;29;19906;-81
2023/12/07 08:27:36;;;;;;;;;;;12.80;76.70;;;;;;4952525;29;19973;-81
2023/12/07 08:36:33;;;;;;;;;;;12.80;76.70;;;;;;4895715;29;19922;-79
2023/12/07 08:39:24;;;;;;;;;;;12.70;76.70;;;;;;4894786;29;19907;-77
2023/12/07 08:48:39;;;;;;;;;;;;;;;;;;;;;
2023/12/07 08:57:24;;;;;;;;;;;12.90;76.60;;;;;;4889373;29;19965;-79
2023/12/07 09:56:57;;;;;;;;;;;12.90;76.70;;;;;;4819832;29;19924;-80
2023/12/07 10:02:26;;;;;;;;;;;13.00;76.80;;;;;;4766126;30;19963;-79
2023/12/07 10:05:26;;;;;;;;;;;;;;;;;;;;;
2023/12/07 10:07:51;;;;;;;;;;;12.90;76.70;;;;;;4824820;29;19913;-80
2023/12/07 10:10:17;;;;;;;;;;;12.90;76.70;;;;;;4921599;29;19912;-81
2023/12/07 10:12:52;;;;;;;;;;;12.90;76.70;;;;;;4934581;28;19920;-79
2023/12/07 10:15:19;;;;;;;;;;;12.90;76.80;;;;;;4951847;29;20285;-80
2023/12/07 10:17:58;;;;;;;;;;;12.90;76.70;;;;;;4935080;29;20478;-78
2023/12/07 10:20:24;;;;;;;;;;;12.80;76.70;;;;;;4933770;29;20379;-79
2023/12/07 10:23:03;;;;;;;;;;;12.80;76.60;;;;;;4934141;29;19906;-81
2023/12/07 10:25:32;;;;;;;;;;;12.80;76.60;;;;;;4934798;29;19914;-80
2023/12/07 10:27:58;;;;;;;;;;;12.90;76.70;;;;;;4934421;29;19906;-79
2023/12/07 10:30:25;;;;;;;;;;;12.90;76.70;;;;;;4934249;29;20470;-80
2023/12/07 10:32:51;;;;;;;;;;;12.90;76.70;;;;;;4934324;29;20469;-79
2023/12/07 10:35:18;;;;;;;;;;;12.80;76.70;;;;;;4934450;29;19922;-80
2023/12/07 10:37:44;;;;;;;;;;;12.90;76.70;;;;;;4934367;29;19912;-78
2023/12/07 10:40:10;;;;;;;;;;;12.90;76.60;;;;;;4933342;29;19918;-78
2023/12/07 10:42:36;;;;;;;;;;;12.90;76.60;;;;;;4933833;29;19911;-77
2023/12/07 10:45:05;;;;;;;;;;;12.90;76.60;;;;;;4934104;29;20381;-80
2023/12/07 10:47:34;;;;;;;;;;;12.90;76.50;;;;;;4934545;29;20418;-80
2023/12/07 10:50:01;;;;;;;;;;;12.90;76.50;;;;;;4934236;29;19910;-79
2023/12/07 10:52:27;;;;;;;;;;;12.90;76.50;;;;;;4934483;29;19915;-77
2023/12/07 10:54:56;;;;;;;;;;;12.90;76.50;;;;;;4934780;29;19911;-80
2023/12/07 10:57:22;;;;;;;;;;;13.00;76.40;;;;;;4950492;29;19910;-79
2023/12/07 10:59:50;;;;;;;;;;;12.90;76.40;;;;;;4934580;29;19929;-78
2023/12/07 11:02:16;;;;;;;;;;;13.00;76.40;;;;;;4934237;29;20367;-80
2023/12/07 11:04:43;;;;;;;;;;;13.00;76.40;;;;;;4934310;29;19906;-78
2023/12/07 11:07:10;;;;;;;;;;;13.00;76.50;;;;;;4934858;29;19906;-79
2023/12/07 11:09:39;;;;;;;;;;;12.90;76.40;;;;;;4933852;29;19921;-80
2023/12/07 11:12:12;;;;;;;;;;;13.00;76.50;;;;;;4934688;29;20026;-79
2023/12/07 11:14:38;;;;;;;;;;;13.00;76.40;;;;;;4934127;29;19993;-79
2023/12/07 11:17:04;;;;;;;;;;;13.00;76.50;;;;;;4949975;29;20801;-78
2023/12/07 11:19:29;;;;;;;;;;;13.00;76.50;;;;;;4934470;29;19910;-80
2023/12/07 11:22:01;;;;;;;;;;;13.00;76.40;;;;;;4950318;29;19960;-79
2023/12/07 11:24:27;;;;;;;;;;;13.00;76.40;;;;;;4933776;29;19922;-78
2023/12/07 11:26:53;;;;;;;;;;;13.10;76.30;;;;;;4934035;29;20564;-78
2023/12/07 11:29:24;;;;;;;;;;;13.10;76.20;;;;;;4951403;29;19906;-80
2023/12/07 11:31:50;;;;;;;;;;;13.10;76.10;;;;;;4934975;29;19911;-76
2023/12/07 11:34:33;;;;;;;;;;;13.20;76.00;;;;;;4934661;29;19910;-81
2023/12/07 11:36:58;;;;;;;;;;;13.20;75.90;;;;;;4920088;29;19915;-81
2023/12/07 11:39:26;;;;;;;;;;;13.20;75.80;;;;;;4931055;29;19918;-81
2023/12/07 11:41:53;;;;;;;;;;;13.30;75.70;;;;;;4931856;29;19911;-80
2023/12/07 11:44:19;;;;;;;;;;;13.30;75.60;;;;;;4931421;29;19907;-81
2023/12/07 11:46:44;;;;;;;;;;;13.30;75.60;;;;;;4931299;29;20479;-78
2023/12/07 11:49:11;;;;;;;;;;;13.30;75.40;;;;;;4931003;29;19917;-82
2023/12/07 11:51:36;;;;;;;;;;;13.30;75.50;;;;;;4933146;29;19918;-80
2023/12/07 11:54:02;;;;;;;;;;;13.30;75.60;;;;;;4934211;29;19957;-82
2023/12/07 11:56:27;;;;;;;;;;;13.30;75.70;;;;;;4951009;28;20258;-79
2023/12/07 11:58:53;;;;;;;;;;;13.30;75.80;;;;;;4951315;29;19918;-82
2023/12/07 12:01:18;;;;;;;;;;;13.20;75.90;;;;;;4935004;29;19911;-82
2023/12/07 12:03:44;;;;;;;;;;;13.20;75.90;;;;;;4951457;29;19906;-81
2023/12/07 12:06:11;;;;;;;;;;;13.20;75.90;;;;;;4934464;29;19911;-81
2023/12/07 12:08:38;;;;;;;;;;;13.20;75.80;;;;;;4948277;28;20021;-81
2023/12/07 12:11:04;;;;;;;;;;;13.30;75.80;;;;;;4940407;28;19921;-80
2023/12/07 12:13:30;;;;;;;;;;;13.30;75.70;;;;;;4937413;28;19910;-81
2023/12/07 12:15:56;;;;;;;;;;;13.30;75.60;;;;;;4937264;29;19915;-80
2023/12/07 12:18:21;;;;;;;;;;;13.30;75.60;;;;;;4935137;29;19978;-81
2023/12/07 12:20:50;;;;;;;;;;;13.40;75.60;;;;;;4936704;29;20318;-80
2023/12/07 12:23:15;;;;;;;;;;;13.40;75.50;;;;;;4944305;28;19934;-82
2023/12/07 12:25:41;;;;;;;;;;;13.40;75.40;;;;;;4940484;29;19906;-79
2023/12/07 12:28:07;;;;;;;;;;;13.40;75.40;;;;;;4940095;29;19966;-82
2023/12/07 12:30:33;;;;;;;;;;;13.40;75.30;;;;;;4940163;29;19921;-80
2023/12/07 12:33:01;;;;;;;;;;;13.40;75.20;;;;;;4957393;29;19907;-81
2023/12/07 12:35:27;;;;;;;;;;;13.50;75.20;;;;;;4939600;29;20367;-80
2023/12/07 12:37:54;;;;;;;;;;;13.50;75.10;;;;;;4940353;29;19902;-82
2023/12/07 12:40:20;;;;;;;;;;;13.50;75.10;;;;;;4940265;29;19914;-81
2023/12/07 12:42:46;;;;;;;;;;;13.50;75.00;;;;;;4939635;29;19914;-81
2023/12/07 12:45:13;;;;;;;;;;;13.50;75.00;;;;;;4957448;29;19902;-82
2023/12/07 12:47:39;;;;;;;;;;;13.50;74.90;;;;;;4939632;29;19907;-79
2023/12/07 12:50:05;;;;;;;;;;;13.50;74.80;;;;;;4939324;29;19982;-81
2023/12/07 12:52:31;;;;;;;;;;;13.60;74.90;;;;;;4936978;29;20050;-80
2023/12/07 12:54:56;;;;;;;;;;;13.60;74.80;;;;;;4939191;29;19961;-81
2023/12/07 12:57:22;;;;;;;;;;;13.60;74.70;;;;;;4938980;29;19925;-79
2023/12/07 12:59:48;;;;;;;;;;;13.60;74.70;;;;;;4938258;29;19907;-82
2023/12/07 13:02:13;;;;;;;;;;;13.60;74.70;;;;;;4954019;29;19938;-81
2023/12/07 13:04:40;;;;;;;;;;;13.60;74.80;;;;;;4938038;29;19910;-82
2023/12/07 13:07:05;;;;;;;;;;;13.60;74.80;;;;;;4956625;29;20426;-83
2023/12/07 13:09:31;;;;;;;;;;;13.60;74.90;;;;;;4938605;29;19918;-79
2023/12/07 13:11:57;;;;;;;;;;;13.60;75.00;;;;;;4938104;29;20454;-80
2023/12/07 13:14:23;;;;;;;;;;;13.60;75.00;;;;;;4955989;29;19958;-80
2023/12/07 13:16:48;;;;;;;;;;;13.60;75.10;;;;;;4956330;29;20323;-79
2023/12/07 13:19:14;;;;;;;;;;;13.60;75.10;;;;;;4938665;29;20364;-81
2023/12/07 13:21:39;;;;;;;;;;;13.60;75.10;;;;;;4938482;29;19911;-79
2023/12/07 13:24:05;;;;;;;;;;;13.50;75.10;;;;;;4938704;29;19953;-80
2023/12/07 13:26:31;;;;;;;;;;;13.50;75.20;;;;;;4937810;28;20020;-81
2023/12/07 13:28:56;;;;;;;;;;;13.50;75.30;;;;;;4937818;29;19976;-81
2023/12/07 13:31:22;;;;;;;;;;;13.50;75.40;;;;;;4955408;28;20308;-79
2023/12/07 13:33:47;;;;;;;;;;;13.50;75.40;;;;;;4938274;29;19910;-82
2023/12/07 13:36:13;;;;;;;;;;;13.50;75.40;;;;;;4937389;29;20017;-79
2023/12/07 13:38:39;;;;;;;;;;;13.50;75.50;;;;;;4938146;29;20438;-80
2023/12/07 13:41:05;;;;;;;;;;;13.50;75.50;;;;;;4939485;29;20004;-77
2023/12/07 13:43:30;;;;;;;;;;;13.50;75.50;;;;;;4956307;29;20366;-78
2023/12/07 13:45:56;;;;;;;;;;;13.50;75.50;;;;;;4939232;29;19961;-80
2023/12/07 13:48:22;;;;;;;;;;;13.50;75.60;;;;;;4955915;29;19910;-82
2023/12/07 13:50:47;;;;;;;;;;;13.50;75.60;;;;;;4938878;29;19913;-79
2023/12/07 13:53:12;;;;;;;;;;;13.50;75.70;;;;;;4939003;29;19917;-79
2023/12/07 13:55:39;;;;;;;;;;;13.40;75.70;;;;;;4938738;29;20064;-80
2023/12/07 13:58:06;;;;;;;;;;;13.40;75.80;;;;;;4938873;29;20318;-79
2023/12/07 14:00:34;;;;;;;;;;;13.40;75.80;;;;;;4938872;29;19913;-79
2023/12/07 14:02:59;;;;;;;;;;;13.40;75.80;;;;;;4938577;29;19906;-78
2023/12/07 14:05:25;;;;;;;;;;;13.40;75.90;;;;;;4938529;29;19913;-78
2023/12/07 14:07:50;;;;;;;;;;;13.40;75.90;;;;;;4938584;29;19906;-78
2023/12/07 14:10:16;;;;;;;;;;;13.40;75.90;;;;;;4938362;29;19907;-79
2023/12/07 14:12:41;;;;;;;;;;;13.40;76.00;;;;;;4938461;29;19907;-79
2023/12/07 14:15:07;;;;;;;;;;;13.30;75.90;;;;;;4938331;29;20025;-79
2023/12/07 14:17:37;;;;;;;;;;;13.40;76.60;;;;;;4938394;29;19911;-79
2023/12/07 14:20:06;;;;;;;;;;;13.40;76.00;;;;;;4938026;29;19914;-80
2023/12/07 14:22:32;;;;;;;;;;;13.40;76.10;;;;;;4938172;29;19906;-80
2023/12/07 14:24:58;;;;;;;;;;;13.30;76.10;;;;;;4938122;29;19913;-80
2023/12/07 14:27:23;;;;;;;;;;;13.30;76.10;;;;;;4938266;29;19934;-80
2023/12/07 14:29:48;;;;;;;;;;;13.30;76.10;;;;;;4937704;29;20434;-80
2023/12/07 14:32:14;;;;;;;;;;;13.30;76.10;;;;;;4938249;29;19913;-80
2023/12/07 14:34:39;;;;;;;;;;;13.30;76.20;;;;;;4938275;29;19906;-80
2023/12/07 14:37:05;;;;;;;;;;;13.30;76.20;;;;;;4938356;29;19906;-80
2023/12/07 14:39:30;;;;;;;;;;;13.30;76.20;;;;;;4937822;29;19914;-78
2023/12/07 14:41:56;;;;;;;;;;;13.30;76.30;;;;;;4938290;29;20302;-78
2023/12/07 14:44:22;;;;;;;;;;;13.30;76.20;;;;;;4937607;29;20038;-79
2023/12/07 14:46:47;;;;;;;;;;;13.30;76.20;;;;;;4935000;29;20001;-79
2023/12/07 14:49:14;;;;;;;;;;;13.30;76.30;;;;;;4947199;28;19957;-80
2023/12/07 14:51:39;;;;;;;;;;;13.20;76.30;;;;;;4954203;28;20418;-79
2023/12/07 14:54:05;;;;;;;;;;;13.30;76.90;;;;;;4955139;28;19910;-80
2023/12/07 14:56:33;;;;;;;;;;;13.30;76.40;;;;;;4954682;28;19910;-80
2023/12/07 14:58:59;;;;;;;;;;;13.20;76.40;;;;;;4954576;28;19937;-79
2023/12/07 15:01:25;;;;;;;;;;;13.20;76.40;;;;;;4954578;28;19906;-79
2023/12/07 15:03:51;;;;;;;;;;;13.30;76.40;;;;;;4954309;28;19906;-81
2023/12/07 15:06:16;;;;;;;;;;;13.20;76.40;;;;;;4946822;29;19918;-79
2023/12/07 15:08:42;;;;;;;;;;;13.20;76.40;;;;;;4934979;29;19907;-79
2023/12/07 15:11:07;;;;;;;;;;;13.20;76.40;;;;;;4934887;29;19918;-78
2023/12/07 15:13:34;;;;;;;;;;;13.20;76.40;;;;;;4934840;29;19917;-80
2023/12/07 15:16:00;;;;;;;;;;;13.20;76.40;;;;;;4935300;29;19914;-78
2023/12/07 15:18:28;;;;;;;;;;;13.20;76.40;;;;;;4935881;29;19981;-78
2023/12/07 15:20:54;;;;;;;;;;;13.20;76.40;;;;;;4935519;29;20368;-80
2023/12/07 15:23:19;;;;;;;;;;;13.20;76.40;;;;;;4935290;29;19906;-79
2023/12/07 15:25:45;;;;;;;;;;;13.20;76.40;;;;;;4935289;29;19910;-78
2023/12/07 15:28:12;;;;;;;;;;;13.20;76.40;;;;;;4935350;29;19933;-79
2023/12/07 15:30:37;;;;;;;;;;;13.10;76.30;;;;;;4935083;29;19917;-78
2023/12/07 15:33:03;;;;;;;;;;;13.20;76.30;;;;;;4937209;29;19910;-79
2023/12/07 15:35:29;;;;;;;;;;;13.20;76.40;;;;;;4950697;29;20012;-78
2023/12/07 15:37:54;;;;;;;;;;;13.20;76.40;;;;;;4951647;29;20069;-79
2023/12/07 15:40:20;;;;;;;;;;;13.20;76.40;;;;;;4951006;29;19918;-78
2023/12/07 15:42:45;;;;;;;;;;;13.20;76.40;;;;;;4951006;29;19916;-80
2023/12/07 15:45:10;;;;;;;;;;;13.20;76.40;;;;;;4951707;29;19910;-81
2023/12/07 15:47:36;;;;;;;;;;;13.20;76.40;;;;;;4952585;28;19941;-79
2023/12/07 15:50:01;;;;;;;;;;;13.10;76.40;;;;;;4951327;29;19910;-80
2023/12/07 15:52:27;;;;;;;;;;;13.10;76.40;;;;;;4951506;29;19949;-80
2023/12/07 15:54:52;;;;;;;;;;;13.10;76.00;;;;;;4952900;28;20367;-81
2023/12/07 15:57:18;;;;;;;;;;;13.10;75.80;;;;;;4952177;28;20357;-80
2023/12/07 15:59:43;;;;;;;;;;;13.10;75.90;;;;;;4943904;29;19906;-79
2023/12/07 16:02:09;;;;;;;;;;;13.10;75.80;;;;;;4941741;29;19973;-80
2023/12/07 16:04:35;;;;;;;;;;;13.10;75.80;;;;;;4941485;29;19975;-78
2023/12/07 16:07:03;;;;;;;;;;;13.10;75.90;;;;;;4943124;28;20524;-79
2023/12/07 16:09:29;;;;;;;;;;;13.10;75.90;;;;;;4960449;28;19910;-79
2023/12/07 16:11:54;;;;;;;;;;;13.10;76.00;;;;;;4942462;29;20355;-80
2023/12/07 16:14:20;;;;;;;;;;;13.10;76.10;;;;;;4941018;29;19907;-80
2023/12/07 16:16:45;;;;;;;;;;;13.10;76.10;;;;;;4940961;29;19915;-80
2023/12/07 16:19:10;;;;;;;;;;;13.10;76.10;;;;;;4940858;29;19907;-79
2023/12/07 16:21:37;;;;;;;;;;;13.10;76.20;;;;;;4955247;29;20652;-79
2023/12/07 16:24:02;;;;;;;;;;;13.10;76.10;;;;;;4957169;29;20684;-80
2023/12/07 16:26:28;;;;;;;;;;;13.10;76.10;;;;;;4957052;29;19977;-79
2023/12/07 16:28:53;;;;;;;;;;;13.10;76.10;;;;;;4960221;28;19922;-79
2023/12/07 16:31:19;;;;;;;;;;;13.10;76.10;;;;;;4959798;28;19933;-79
2023/12/07 16:33:44;;;;;;;;;;;13.10;76.10;;;;;;4959907;28;19905;-80
2023/12/07 16:36:14;;;;;;;;;;;13.10;76.10;;;;;;4959961;28;19910;-80
2023/12/07 16:38:40;;;;;;;;;;;13.10;76.10;;;;;;4957711;28;19906;-79
2023/12/07 16:41:06;;;;;;;;;;;13.10;76.10;;;;;;4941418;29;19921;-78
2023/12/07 16:43:31;;;;;;;;;;;13.10;76.20;;;;;;4940619;29;19906;-78
2023/12/07 16:45:57;;;;;;;;;;;13.10;76.20;;;;;;4940869;29;19910;-80
2023/12/07 16:48:22;;;;;;;;;;;13.10;76.20;;;;;;4945385;28;19921;-78
2023/12/07 16:50:48;;;;;;;;;;;13.10;76.20;;;;;;4940120;29;19913;-79
2023/12/07 16:53:15;;;;;;;;;;;13.10;76.10;;;;;;4939894;29;19950;-79
2023/12/07 16:55:40;;;;;;;;;;;13.10;76.00;;;;;;4940195;29;19911;-79
2023/12/07 16:58:06;;;;;;;;;;;13.10;76.40;;;;;;4941034;28;20433;-81
2023/12/07 17:00:32;;;;;;;;;;;13.10;76.10;;;;;;4959281;28;19929;-80
2023/12/07 17:02:57;;;;;;;;;;;13.10;76.10;;;;;;4959400;28;19913;-79
2023/12/07 17:05:23;;;;;;;;;;;13.10;76.10;;;;;;4959342;28;19906;-79
2023/12/07 17:07:48;;;;;;;;;;;13.10;76.10;;;;;;4975678;28;20400;-80
2023/12/07 17:10:13;;;;;;;;;;;13.10;76.10;;;;;;4958178;28;20438;-79
2023/12/07 17:12:39;;;;;;;;;;;13.10;76.10;;;;;;4958479;28;20280;-81
2023/12/07 17:15:05;;;;;;;;;;;13.10;76.10;;;;;;4950149;29;19911;-82
2023/12/07 17:17:30;;;;;;;;;;;13.10;76.10;;;;;;4939138;29;19906;-79
2023/12/07 17:19:56;;;;;;;;;;;13.10;76.10;;;;;;4938861;29;20021;-80
2023/12/07 17:22:22;;;;;;;;;;;13.10;76.10;;;;;;4938525;29;20376;-79
2023/12/07 17:24:47;;;;;;;;;;;13.00;76.00;;;;;;4938801;29;19941;-80
2023/12/07 17:27:13;;;;;;;;;;;13.00;76.00;;;;;;4938685;29;19907;-80
2023/12/07 17:29:38;;;;;;;;;;;13.10;76.10;;;;;;4938558;29;19961;-78
2023/12/07 17:32:05;;;;;;;;;;;13.10;76.10;;;;;;4955966;29;19961;-80
2023/12/07 17:34:30;;;;;;;;;;;13.10;76.10;;;;;;4938709;29;19913;-79
2023/12/07 17:36:57;;;;;;;;;;;13.10;76.50;;;;;;4938527;29;20012;-80
2023/12/07 17:39:22;;;;;;;;;;;13.10;76.00;;;;;;4938067;29;19940;-80
2023/12/07 17:41:47;;;;;;;;;;;13.00;75.90;;;;;;4938398;29;20690;-78
2023/12/07 17:44:13;;;;;;;;;;;13.00;75.90;;;;;;4938485;29;19961;-78
2023/12/07 17:46:38;;;;;;;;;;;13.00;75.90;;;;;;4938575;29;19906;-79
2023/12/07 17:49:04;;;;;;;;;;;13.00;76.00;;;;;;4938540;29;19907;-78